sensor_id;sensor_type;location;lat;lon;timestamp;pressure;altitude;pressure_sealevel;temperature;humidity
62680;BME280;68213;40.528;44.712;2023-06-14T00:00:22;80215.06;;;11.39;71.10
62680;BME280;68213;40.528;44.712;2023-06-14T00:01:23;80211.16;;;11.40;71.20
62680;BME280;68213;40.528;44.712;2023-06-14T00:02:24;80211.81;;;11.41;71.19
62680;BME280;68213;40.528;44.712;2023-06-14T00:03:25;80208.63;;;11.42;70.88
62680;BME280;68213;40.528;44.712;2023-06-14T00:04:26;80204.69;;;11.43;70.67
62680;BME280;68213;40.528;44.712;2023-06-14T00:05:30;80202.06;;;11.43;70.69
62680;BME280;68213;40.528;44.712;2023-06-14T00:06:32;80206.06;;;11.45;71.02
62680;BME280;68213;40.528;44.712;2023-06-14T00:07:38;80205.38;;;11.44;71.03
62680;BME280;68213;40.528;44.712;2023-06-14T00:08:42;80191.28;;;11.37;70.83
62680;BME280;68213;40.528;44.712;2023-06-14T00:09:43;80210.66;;;11.44;71.40
62680;BME280;68213;40.528;44.712;2023-06-14T00:10:44;80205.53;;;11.32;72.09
62680;BME280;68213;40.528;44.712;2023-06-14T00:11:45;80199.28;;;11.25;72.40
62680;BME280;68213;40.528;44.712;2023-06-14T00:12:45;80214.41;;;11.25;72.69
62680;BME280;68213;40.528;44.712;2023-06-14T00:13:46;80216.84;;;11.21;72.73
62680;BME280;68213;40.528;44.712;2023-06-14T00:14:47;80216.94;;;11.23;72.39
62680;BME280;68213;40.528;44.712;2023-06-14T00:15:47;80216.94;;;11.23;72.30
62680;BME280;68213;40.528;44.712;2023-06-14T00:16:48;80215.56;;;11.22;71.92
62680;BME280;68213;40.528;44.712;2023-06-14T00:17:49;80211.19;;;11.26;71.24
62680;BME280;68213;40.528;44.712;2023-06-14T00:18:50;80213.31;;;11.30;70.78
62680;BME280;68213;40.528;44.712;2023-06-14T00:19:52;80214.09;;;11.33;70.48
62680;BME280;68213;40.528;44.712;2023-06-14T00:20:53;80220.16;;;11.35;70.39
62680;BME280;68213;40.528;44.712;2023-06-14T00:21:55;80213.59;;;11.36;70.90
62680;BME280;68213;40.528;44.712;2023-06-14T00:22:55;80220.31;;;11.39;70.30
62680;BME280;68213;40.528;44.712;2023-06-14T00:23:57;80213.78;;;11.40;70.01
62680;BME280;68213;40.528;44.712;2023-06-14T00:24:58;80198.72;;;11.27;69.58
62680;BME280;68213;40.528;44.712;2023-06-14T00:25:59;80208.13;;;11.46;69.60
62680;BME280;68213;40.528;44.712;2023-06-14T00:26:59;80215.59;;;11.52;69.29
62680;BME280;68213;40.528;44.712;2023-06-14T00:28:00;80210.31;;;11.52;69.25
62680;BME280;68213;40.528;44.712;2023-06-14T00:29:01;80216.28;;;11.52;69.37
62680;BME280;68213;40.528;44.712;2023-06-14T00:30:02;80215.59;;;11.52;69.15
62680;BME280;68213;40.528;44.712;2023-06-14T00:31:04;80216.84;;;11.51;68.98
62680;BME280;68213;40.528;44.712;2023-06-14T00:32:04;80209.56;;;11.49;68.98
62680;BME280;68213;40.528;44.712;2023-06-14T00:33:05;80216.09;;;11.48;68.71
62680;BME280;68213;40.528;44.712;2023-06-14T00:34:06;80220.69;;;11.48;68.81
62680;BME280;68213;40.528;44.712;2023-06-14T00:35:06;80214.56;;;11.43;69.11
62680;BME280;68213;40.528;44.712;2023-06-14T00:36:08;80215.16;;;11.41;69.13
62680;BME280;68213;40.528;44.712;2023-06-14T00:37:08;80211.31;;;11.45;68.79
62680;BME280;68213;40.528;44.712;2023-06-14T00:38:09;80210.66;;;11.44;68.86
62680;BME280;68213;40.528;44.712;2023-06-14T00:39:12;80207.44;;;11.46;68.82
62680;BME280;68213;40.528;44.712;2023-06-14T00:40:15;80208.78;;;11.47;68.92
62680;BME280;68213;40.528;44.712;2023-06-14T00:41:16;80212.69;;;11.46;68.94
62680;BME280;68213;40.528;44.712;2023-06-14T00:42:24;80211.25;;;11.42;69.48
62680;BME280;68213;40.528;44.712;2023-06-14T00:43:25;80207.16;;;11.39;69.37
62680;BME280;68213;40.528;44.712;2023-06-14T00:44:25;80203.00;;;11.34;69.42
62680;BME280;68213;40.528;44.712;2023-06-14T00:45:26;80203.84;;;11.39;69.65
62680;BME280;68213;40.528;44.712;2023-06-14T00:46:27;80196.63;;;11.39;69.58
62680;BME280;68213;40.528;44.712;2023-06-14T00:47:29;80197.91;;;11.38;69.65
62680;BME280;68213;40.528;44.712;2023-06-14T00:48:30;80199.25;;;11.39;69.74
62680;BME280;68213;40.528;44.712;2023-06-14T00:49:32;80198.59;;;11.39;69.69
62680;BME280;68213;40.528;44.712;2023-06-14T00:50:32;80197.13;;;11.36;69.93
62680;BME280;68213;40.528;44.712;2023-06-14T00:51:34;80193.81;;;11.35;69.87
62680;BME280;68213;40.528;44.712;2023-06-14T00:52:35;80192.47;;;11.34;69.97
62680;BME280;68213;40.528;44.712;2023-06-14T00:53:36;80189.72;;;11.32;70.17
62680;BME280;68213;40.528;44.712;2023-06-14T00:54:43;80189.06;;;11.32;70.27
62680;BME280;68213;40.528;44.712;2023-06-14T00:55:44;80192.47;;;11.34;70.46
62680;BME280;68213;40.528;44.712;2023-06-14T00:56:45;80188.47;;;11.33;70.12
62680;BME280;68213;40.528;44.712;2023-06-14T00:57:45;80190.41;;;11.33;70.23
62680;BME280;68213;40.528;44.712;2023-06-14T00:58:47;80187.19;;;11.34;70.19
62680;BME280;68213;40.528;44.712;2023-06-14T00:59:48;80191.19;;;11.35;70.34
62680;BME280;68213;40.528;44.712;2023-06-14T01:00:50;80193.81;;;11.35;70.52
62680;BME280;68213;40.528;44.712;2023-06-14T01:01:51;80188.47;;;11.33;70.93
62680;BME280;68213;40.528;44.712;2023-06-14T01:02:52;80193.72;;;11.33;70.81
62680;BME280;68213;40.528;44.712;2023-06-14T01:03:54;80198.13;;;11.29;71.61
62680;BME280;68213;40.528;44.712;2023-06-14T01:04:55;80194.03;;;11.25;71.76
62680;BME280;68213;40.528;44.712;2023-06-14T01:06:09;80200.09;;;11.28;71.63
62680;BME280;68213;40.528;44.712;2023-06-14T01:08:41;80192.63;;;11.38;70.49
62680;BME280;68213;40.528;44.712;2023-06-14T01:12:15;80190.97;;;11.45;69.58
62680;BME280;68213;40.528;44.712;2023-06-14T01:13:27;80197.00;;;11.48;69.11
62680;BME280;68213;40.528;44.712;2023-06-14T01:14:28;80190.53;;;11.51;68.98
62680;BME280;68213;40.528;44.712;2023-06-14T01:15:31;80188.59;;;11.51;68.96
62680;BME280;68213;40.528;44.712;2023-06-14T01:16:32;80190.72;;;11.55;68.65
62680;BME280;68213;40.528;44.712;2023-06-14T01:17:36;80192.16;;;11.58;68.42
62680;BME280;68213;40.528;44.712;2023-06-14T01:18:43;80166.19;;;11.50;68.69
62680;BME280;68213;40.528;44.712;2023-06-14T01:19:48;80199.09;;;11.65;68.83
62680;BME280;68213;40.528;44.712;2023-06-14T01:20:53;80200.53;;;11.68;68.78
62680;BME280;68213;40.528;44.712;2023-06-14T01:22:00;80195.25;;;11.68;69.07
62680;BME280;68213;40.528;44.712;2023-06-14T01:23:02;80193.88;;;11.67;69.02
62680;BME280;68213;40.528;44.712;2023-06-14T01:24:03;80192.63;;;11.68;69.34
62680;BME280;68213;40.528;44.712;2023-06-14T01:25:04;80195.34;;;11.70;69.18
62680;BME280;68213;40.528;44.712;2023-06-14T01:26:05;80192.88;;;11.74;69.26
62680;BME280;68213;40.528;44.712;2023-06-14T01:27:07;80186.25;;;11.73;69.06
62680;BME280;68213;40.528;44.712;2023-06-14T01:28:08;80195.19;;;11.82;69.00
62680;BME280;68213;40.528;44.712;2023-06-14T01:29:12;80197.31;;;11.86;69.12
62680;BME280;68213;40.528;44.712;2023-06-14T01:30:17;80199.38;;;11.87;69.21
62680;BME280;68213;40.528;44.712;2023-06-14T01:31:20;80184.41;;;11.76;69.27
62680;BME280;68213;40.528;44.712;2023-06-14T01:32:24;80189.34;;;11.84;69.30
62680;BME280;68213;40.528;44.712;2023-06-14T01:33:27;80207.63;;;11.96;68.97
62680;BME280;68213;40.528;44.712;2023-06-14T01:34:28;80200.38;;;11.96;69.06
62680;BME280;68213;40.528;44.712;2023-06-14T01:35:29;80211.03;;;11.98;68.80
62680;BME280;68213;40.528;44.712;2023-06-14T01:36:30;80211.91;;;12.03;68.82
62680;BME280;68213;40.528;44.712;2023-06-14T01:37:31;80212.66;;;12.05;68.73
62680;BME280;68213;40.528;44.712;2023-06-14T01:38:32;80214.03;;;12.06;68.86
62680;BME280;68213;40.528;44.712;2023-06-14T01:39:33;80201.66;;;11.95;68.74
62680;BME280;68213;40.528;44.712;2023-06-14T01:40:34;80220.75;;;12.10;68.92
62680;BME280;68213;40.528;44.712;2023-06-14T01:41:36;80217.63;;;12.13;68.74
62680;BME280;68213;40.528;44.712;2023-06-14T01:42:38;80229.59;;;12.16;68.33
62680;BME280;68213;40.528;44.712;2023-06-14T01:43:41;80230.34;;;12.19;68.35
62680;BME280;68213;40.528;44.712;2023-06-14T01:44:42;80232.47;;;12.22;68.36
62680;BME280;68213;40.528;44.712;2023-06-14T01:45:46;80240.06;;;12.30;68.03
62680;BME280;68213;40.528;44.712;2023-06-14T01:46:48;80242.94;;;12.36;67.98
62680;BME280;68213;40.528;44.712;2023-06-14T01:47:48;80250.25;;;12.38;68.89
62680;BME280;68213;40.528;44.712;2023-06-14T01:48:51;80252.63;;;12.32;68.51
62680;BME280;68213;40.528;44.712;2023-06-14T01:49:51;80253.59;;;12.38;67.22
62680;BME280;68213;40.528;44.712;2023-06-14T01:50:52;80261.66;;;12.43;67.93
62680;BME280;68213;40.528;44.712;2023-06-14T01:51:53;80268.97;;;12.44;67.35
62680;BME280;68213;40.528;44.712;2023-06-14T01:52:54;80277.66;;;12.47;67.74
62680;BME280;68213;40.528;44.712;2023-06-14T01:53:54;80276.47;;;12.50;66.46
62680;BME280;68213;40.528;44.712;2023-06-14T01:54:55;80285.63;;;12.49;67.61
62680;BME280;68213;40.528;44.712;2023-06-14T01:55:56;80279.59;;;12.46;67.33
62680;BME280;68213;40.528;44.712;2023-06-14T01:56:57;80296.44;;;12.55;67.25
62680;BME280;68213;40.528;44.712;2023-06-14T01:57:58;80292.53;;;12.56;67.33
62680;BME280;68213;40.528;44.712;2023-06-14T01:58:59;80291.25;;;12.57;67.88
62680;BME280;68213;40.528;44.712;2023-06-14T02:00:00;80294.91;;;12.66;68.54
62680;BME280;68213;40.528;44.712;2023-06-14T02:01:02;80293.22;;;12.73;68.27
62680;BME280;68213;40.528;44.712;2023-06-14T02:02:03;80305.22;;;12.76;68.62
62680;BME280;68213;40.528;44.712;2023-06-14T02:03:04;80311.28;;;12.78;68.58
62680;BME280;68213;40.528;44.712;2023-06-14T02:04:04;80321.47;;;12.86;67.87
62680;BME280;68213;40.528;44.712;2023-06-14T02:05:05;80328.38;;;12.93;68.72
62680;BME280;68213;40.528;44.712;2023-06-14T02:06:06;80324.44;;;12.94;67.18
62680;BME280;68213;40.528;44.712;2023-06-14T02:07:07;80324.78;;;13.02;65.14
62680;BME280;68213;40.528;44.712;2023-06-14T02:08:08;80326.31;;;13.08;64.29
62680;BME280;68213;40.528;44.712;2023-06-14T02:09:10;80325.13;;;13.11;61.25
62680;BME280;68213;40.528;44.712;2023-06-14T02:10:11;80329.75;;;13.10;63.28
62680;BME280;68213;40.528;44.712;2023-06-14T02:11:12;80319.59;;;13.05;63.62
62680;BME280;68213;40.528;44.712;2023-06-14T02:12:13;80331.94;;;12.84;64.57
62680;BME280;68213;40.528;44.712;2023-06-14T02:13:14;80352.00;;;12.75;56.37
62680;BME280;68213;40.528;44.712;2023-06-14T02:14:14;80323.44;;;13.01;52.77
62680;BME280;68213;40.528;44.712;2023-06-14T02:15:17;80324.28;;;13.06;55.67
62680;BME280;68213;40.528;44.712;2023-06-14T02:16:18;80334.84;;;13.06;55.13
62680;BME280;68213;40.528;44.712;2023-06-14T02:17:19;80336.34;;;13.11;52.40
62680;BME280;68213;40.528;44.712;2023-06-14T02:18:20;80337.91;;;13.00;57.30
62680;BME280;68213;40.528;44.712;2023-06-14T02:19:41;80335.34;;;12.87;57.41
62680;BME280;68213;40.528;44.712;2023-06-14T02:20:42;80330.41;;;12.79;59.30
62680;BME280;68213;40.528;44.712;2023-06-14T02:21:43;80319.00;;;12.74;57.03
62680;BME280;68213;40.528;44.712;2023-06-14T02:22:45;80334.16;;;12.74;61.62
62680;BME280;68213;40.528;44.712;2023-06-14T02:23:45;80340.59;;;12.54;63.82
62680;BME280;68213;40.528;44.712;2023-06-14T02:24:46;80339.38;;;12.42;63.17
62680;BME280;68213;40.528;44.712;2023-06-14T02:25:47;80336.31;;;12.31;62.24
62680;BME280;68213;40.528;44.712;2023-06-14T02:26:48;80336.03;;;12.25;66.17
62680;BME280;68213;40.528;44.712;2023-06-14T02:27:48;80336.69;;;12.10;60.76
62680;BME280;68213;40.528;44.712;2023-06-14T02:28:49;80322.22;;;12.11;63.57
62680;BME280;68213;40.528;44.712;2023-06-14T02:29:50;80326.91;;;12.12;61.21
62680;BME280;68213;40.528;44.712;2023-06-14T02:30:50;80328.94;;;12.14;63.04
62680;BME280;68213;40.528;44.712;2023-06-14T02:31:51;80325.03;;;12.15;64.39
62680;BME280;68213;40.528;44.712;2023-06-14T02:32:52;80322.16;;;12.09;66.61
62680;BME280;68213;40.528;44.712;2023-06-14T02:33:53;80306.41;;;12.11;59.72
62680;BME280;68213;40.528;44.712;2023-06-14T02:34:54;80315.09;;;12.13;63.77
62680;BME280;68213;40.528;44.712;2023-06-14T02:35:54;80319.41;;;12.06;63.92
62680;BME280;68213;40.528;44.712;2023-06-14T02:36:56;80322.66;;;12.05;66.30
62680;BME280;68213;40.528;44.712;2023-06-14T02:37:57;80324.69;;;11.93;68.00
62680;BME280;68213;40.528;44.712;2023-06-14T02:38:58;80323.19;;;11.73;70.42
62680;BME280;68213;40.528;44.712;2023-06-14T02:39:58;80336.00;;;11.65;70.44
62680;BME280;68213;40.528;44.712;2023-06-14T02:40:59;80317.25;;;11.59;73.06
62680;BME280;68213;40.528;44.712;2023-06-14T02:42:02;80322.22;;;11.67;72.94
62680;BME280;68213;40.528;44.712;2023-06-14T02:43:02;80321.84;;;11.58;75.92
62680;BME280;68213;40.528;44.712;2023-06-14T02:44:06;80313.69;;;11.38;77.34
62680;BME280;68213;40.528;44.712;2023-06-14T02:45:07;80308.84;;;11.19;77.61
62680;BME280;68213;40.528;44.712;2023-06-14T02:46:08;80302.91;;;11.18;77.30
62680;BME280;68213;40.528;44.712;2023-06-14T02:47:09;80297.66;;;10.76;79.36
62680;BME280;68213;40.528;44.712;2023-06-14T02:48:10;80299.13;;;10.79;80.40
62680;BME280;68213;40.528;44.712;2023-06-14T02:49:11;80294.63;;;10.82;80.41
62680;BME280;68213;40.528;44.712;2023-06-14T02:50:12;80292.59;;;10.81;78.84
62680;BME280;68213;40.528;44.712;2023-06-14T02:51:13;80283.34;;;10.79;79.62
62680;BME280;68213;40.528;44.712;2023-06-14T02:52:13;80286.06;;;10.82;78.72
62680;BME280;68213;40.528;44.712;2023-06-14T02:53:14;80292.00;;;10.82;77.82
62680;BME280;68213;40.528;44.712;2023-06-14T02:54:16;80294.03;;;10.84;78.46
62680;BME280;68213;40.528;44.712;2023-06-14T02:55:16;80286.25;;;10.86;77.67
62680;BME280;68213;40.528;44.712;2023-06-14T02:56:17;80280.31;;;10.85;78.76
62680;BME280;68213;40.528;44.712;2023-06-14T02:57:21;80273.50;;;10.80;79.61
62680;BME280;68213;40.528;44.712;2023-06-14T02:58:22;80274.19;;;10.81;78.37
62680;BME280;68213;40.528;44.712;2023-06-14T02:59:25;80263.28;;;10.72;78.28
62680;BME280;68213;40.528;44.712;2023-06-14T03:00:26;80265.59;;;10.80;77.64
62680;BME280;68213;40.528;44.712;2023-06-14T03:01:30;80270.19;;;10.79;78.22
62680;BME280;68213;40.528;44.712;2023-06-14T03:02:34;80255.22;;;10.68;77.72
62680;BME280;68213;40.528;44.712;2023-06-14T03:03:35;80272.03;;;10.77;77.95
62680;BME280;68213;40.528;44.712;2023-06-14T03:04:35;80276.13;;;10.80;77.74
62680;BME280;68213;40.528;44.712;2023-06-14T03:05:37;80284.00;;;10.80;76.49
62680;BME280;68213;40.528;44.712;2023-06-14T03:06:41;80289.84;;;10.78;77.29
62680;BME280;68213;40.528;44.712;2023-06-14T03:07:46;80292.31;;;10.74;77.22
62680;BME280;68213;40.528;44.712;2023-06-14T03:08:47;80297.34;;;10.70;75.67
62680;BME280;68213;40.528;44.712;2023-06-14T03:09:49;80294.81;;;10.72;74.00
62680;BME280;68213;40.528;44.712;2023-06-14T03:10:53;80290.94;;;10.73;74.25
62680;BME280;68213;40.528;44.712;2023-06-14T03:11:54;80296.38;;;10.77;73.67
62680;BME280;68213;40.528;44.712;2023-06-14T03:12:54;80302.41;;;10.80;72.02
62680;BME280;68213;40.528;44.712;2023-06-14T03:13:55;80311.28;;;10.87;73.74
62680;BME280;68213;40.528;44.712;2023-06-14T03:14:56;80321.81;;;10.87;72.08
62680;BME280;68213;40.528;44.712;2023-06-14T03:15:57;80329.81;;;10.89;73.38
62680;BME280;68213;40.528;44.712;2023-06-14T03:16:58;80331.06;;;10.88;72.65
62680;BME280;68213;40.528;44.712;2023-06-14T03:17:59;80346.53;;;10.95;70.23
62680;BME280;68213;40.528;44.712;2023-06-14T03:18:59;80342.66;;;10.97;70.92
62680;BME280;68213;40.528;44.712;2023-06-14T03:20:02;80316.53;;;10.87;67.91
62680;BME280;68213;40.528;44.712;2023-06-14T03:21:04;80348.22;;;11.17;67.89
62680;BME280;68213;40.528;44.712;2023-06-14T03:22:05;80361.75;;;11.25;65.63
62680;BME280;68213;40.528;44.712;2023-06-14T03:23:08;80359.50;;;11.33;67.30
62680;BME280;68213;40.528;44.712;2023-06-14T03:24:09;80365.66;;;11.38;65.07
62680;BME280;68213;40.528;44.712;2023-06-14T03:25:09;80371.81;;;11.42;65.57
62680;BME280;68213;40.528;44.712;2023-06-14T03:26:10;80366.13;;;11.48;68.18
62680;BME280;68213;40.528;44.712;2023-06-14T03:27:14;80350.81;;;11.45;69.57
62680;BME280;68213;40.528;44.712;2023-06-14T03:28:15;80330.13;;;11.67;61.34
62680;BME280;68213;40.528;44.712;2023-06-14T03:29:15;80320.78;;;11.94;51.63
62680;BME280;68213;40.528;44.712;2023-06-14T03:30:16;80319.50;;;12.38;48.32
62680;BME280;68213;40.528;44.712;2023-06-14T03:31:17;80303.34;;;12.62;45.49
62680;BME280;68213;40.528;44.712;2023-06-14T03:32:19;80323.09;;;12.77;49.57
62680;BME280;68213;40.528;44.712;2023-06-14T03:33:20;80333.38;;;12.87;52.44
62680;BME280;68213;40.528;44.712;2023-06-14T03:34:21;80337.38;;;12.88;53.29
62680;BME280;68213;40.528;44.712;2023-06-14T03:35:23;80342.56;;;12.86;55.23
62680;BME280;68213;40.528;44.712;2023-06-14T03:36:23;80348.44;;;12.84;54.91
62680;BME280;68213;40.528;44.712;2023-06-14T03:37:25;80345.31;;;12.72;56.41
62680;BME280;68213;40.528;44.712;2023-06-14T03:38:26;80328.41;;;12.47;58.99
62680;BME280;68213;40.528;44.712;2023-06-14T03:39:28;80363.88;;;12.44;60.43
62680;BME280;68213;40.528;44.712;2023-06-14T03:40:29;80366.06;;;12.34;62.02
62680;BME280;68213;40.528;44.712;2023-06-14T03:41:30;80371.75;;;12.28;62.46
62680;BME280;68213;40.528;44.712;2023-06-14T03:42:30;80371.66;;;12.26;63.50
62680;BME280;68213;40.528;44.712;2023-06-14T03:43:31;80375.88;;;12.17;64.39
62680;BME280;68213;40.528;44.712;2023-06-14T03:44:31;80367.09;;;12.13;65.21
62680;BME280;68213;40.528;44.712;2023-06-14T03:45:32;80375.84;;;12.01;64.59
62680;BME280;68213;40.528;44.712;2023-06-14T03:46:33;80370.66;;;11.89;66.23
62680;BME280;68213;40.528;44.712;2023-06-14T03:47:34;80368.31;;;11.82;65.32
62680;BME280;68213;40.528;44.712;2023-06-14T03:48:35;80377.03;;;11.70;67.08
62680;BME280;68213;40.528;44.712;2023-06-14T03:49:35;80378.00;;;11.63;64.61
62680;BME280;68213;40.528;44.712;2023-06-14T03:50:37;80354.97;;;11.78;58.29
62680;BME280;68213;40.528;44.712;2023-06-14T03:51:40;80351.63;;;11.91;56.16
62680;BME280;68213;40.528;44.712;2023-06-14T03:52:41;80360.03;;;12.01;61.29
62680;BME280;68213;40.528;44.712;2023-06-14T03:53:44;80344.78;;;12.00;61.03
62680;BME280;68213;40.528;44.712;2023-06-14T03:54:44;80330.19;;;11.97;63.54
62680;BME280;68213;40.528;44.712;2023-06-14T03:55:46;80308.38;;;11.96;61.83
62680;BME280;68213;40.528;44.712;2023-06-14T03:56:48;80292.16;;;11.86;64.48
62680;BME280;68213;40.528;44.712;2023-06-14T03:57:49;80287.19;;;11.78;66.19
62680;BME280;68213;40.528;44.712;2023-06-14T03:58:51;80290.41;;;11.77;66.19
62680;BME280;68213;40.528;44.712;2023-06-14T03:59:52;80299.47;;;11.73;63.65
62680;BME280;68213;40.528;44.712;2023-06-14T04:00:53;80306.97;;;11.79;62.31
62680;BME280;68213;40.528;44.712;2023-06-14T04:01:54;80313.38;;;11.90;58.66
62680;BME280;68213;40.528;44.712;2023-06-14T04:02:55;80313.09;;;11.98;59.57
62680;BME280;68213;40.528;44.712;2023-06-14T04:03:56;80309.28;;;12.01;59.19
62680;BME280;68213;40.528;44.712;2023-06-14T04:04:58;80310.66;;;12.18;58.49
62680;BME280;68213;40.528;44.712;2023-06-14T04:05:59;80309.75;;;12.27;59.71
62680;BME280;68213;40.528;44.712;2023-06-14T04:07:00;80299.47;;;12.33;57.42
62680;BME280;68213;40.528;44.712;2023-06-14T04:08:00;80309.97;;;12.47;56.00
62680;BME280;68213;40.528;44.712;2023-06-14T04:09:01;80311.69;;;12.57;56.45
62680;BME280;68213;40.528;44.712;2023-06-14T04:10:03;80310.25;;;12.69;55.00
62680;BME280;68213;40.528;44.712;2023-06-14T04:11:04;80307.94;;;12.78;57.26
62680;BME280;68213;40.528;44.712;2023-06-14T04:12:05;80312.03;;;12.81;58.50
62680;BME280;68213;40.528;44.712;2023-06-14T04:13:06;80291.78;;;12.69;59.28
62680;BME280;68213;40.528;44.712;2023-06-14T04:14:07;80301.47;;;12.81;60.84
62680;BME280;68213;40.528;44.712;2023-06-14T04:15:08;80297.56;;;12.82;61.18
62680;BME280;68213;40.528;44.712;2023-06-14T04:16:09;80296.28;;;12.83;60.57
62680;BME280;68213;40.528;44.712;2023-06-14T04:17:10;80279.34;;;12.88;61.33
62680;BME280;68213;40.528;44.712;2023-06-14T04:18:11;80278.00;;;12.87;62.46
62680;BME280;68213;40.528;44.712;2023-06-14T04:19:11;80279.44;;;12.90;62.85
62680;BME280;68213;40.528;44.712;2023-06-14T04:20:12;80282.25;;;12.94;62.99
62680;BME280;68213;40.528;44.712;2023-06-14T04:21:15;80287.03;;;12.82;64.17
62680;BME280;68213;40.528;44.712;2023-06-14T04:22:16;80285.66;;;12.81;62.91
62680;BME280;68213;40.528;44.712;2023-06-14T04:23:17;80277.50;;;12.75;62.86
62680;BME280;68213;40.528;44.712;2023-06-14T04:24:19;80292.03;;;12.92;60.79
62680;BME280;68213;40.528;44.712;2023-06-14T04:25:19;80289.03;;;12.99;62.09
62680;BME280;68213;40.528;44.712;2023-06-14T04:26:21;80283.25;;;13.03;61.41
62680;BME280;68213;40.528;44.712;2023-06-14T04:27:24;80277.63;;;13.11;59.84
62680;BME280;68213;40.528;44.712;2023-06-14T04:28:28;80267.41;;;13.19;58.06
62680;BME280;68213;40.528;44.712;2023-06-14T04:29:29;80262.59;;;13.31;57.89
62680;BME280;68213;40.528;44.712;2023-06-14T04:30:29;80267.63;;;13.41;58.84
62680;BME280;68213;40.528;44.712;2023-06-14T04:31:32;80275.28;;;13.51;58.73
62680;BME280;68213;40.528;44.712;2023-06-14T04:32:37;80276.38;;;13.62;59.33
62680;BME280;68213;40.528;44.712;2023-06-14T04:33:39;80281.78;;;13.66;59.52
62680;BME280;68213;40.528;44.712;2023-06-14T04:34:43;80284.00;;;13.72;61.33
62680;BME280;68213;40.528;44.712;2023-06-14T04:35:44;80277.50;;;13.75;62.51
62680;BME280;68213;40.528;44.712;2023-06-14T04:36:49;80278.03;;;13.71;62.27
62680;BME280;68213;40.528;44.712;2023-06-14T04:37:50;80288.06;;;13.75;60.36
62680;BME280;68213;40.528;44.712;2023-06-14T04:38:53;80289.44;;;13.76;62.23
62680;BME280;68213;40.528;44.712;2023-06-14T04:39:55;80293.88;;;13.71;63.95
62680;BME280;68213;40.528;44.712;2023-06-14T04:40:56;80293.19;;;13.71;64.09
62680;BME280;68213;40.528;44.712;2023-06-14T04:41:57;80301.56;;;13.65;64.58
62680;BME280;68213;40.528;44.712;2023-06-14T04:43:00;80296.97;;;13.66;64.79
62680;BME280;68213;40.528;44.712;2023-06-14T04:44:01;80306.22;;;13.67;64.85
62680;BME280;68213;40.528;44.712;2023-06-14T04:45:02;80313.84;;;13.58;65.70
62680;BME280;68213;40.528;44.712;2023-06-14T04:46:06;80313.91;;;13.60;67.83
62680;BME280;68213;40.528;44.712;2023-06-14T04:47:10;80321.78;;;13.58;67.81
62680;BME280;68213;40.528;44.712;2023-06-14T04:48:16;80330.91;;;13.55;68.10
62680;BME280;68213;40.528;44.712;2023-06-14T04:49:19;80335.75;;;13.45;65.68
62680;BME280;68213;40.528;44.712;2023-06-14T04:50:20;80326.91;;;13.06;66.74
62680;BME280;68213;40.528;44.712;2023-06-14T04:51:23;80321.31;;;12.98;65.97
62680;BME280;68213;40.528;44.712;2023-06-14T04:52:32;80341.31;;;13.19;67.08
62680;BME280;68213;40.528;44.712;2023-06-14T04:53:33;80324.69;;;13.00;67.93
62680;BME280;68213;40.528;44.712;2023-06-14T04:54:34;80344.28;;;13.11;70.72
62680;BME280;68213;40.528;44.712;2023-06-14T04:55:37;80344.38;;;13.13;71.55
62680;BME280;68213;40.528;44.712;2023-06-14T04:56:38;80343.16;;;13.00;70.10
62680;BME280;68213;40.528;44.712;2023-06-14T04:57:39;80344.78;;;13.08;67.61
62680;BME280;68213;40.528;44.712;2023-06-14T04:58:41;80359.19;;;13.05;68.18
62680;BME280;68213;40.528;44.712;2023-06-14T04:59:41;80356.81;;;12.95;68.03
62680;BME280;68213;40.528;44.712;2023-06-14T05:00:42;80372.03;;;12.80;68.37
62680;BME280;68213;40.528;44.712;2023-06-14T05:01:43;80370.91;;;12.69;67.74
62680;BME280;68213;40.528;44.712;2023-06-14T05:02:47;80386.94;;;12.60;68.54
62680;BME280;68213;40.528;44.712;2023-06-14T05:03:51;80390.09;;;12.56;68.89
62680;BME280;68213;40.528;44.712;2023-06-14T05:04:53;80392.19;;;12.44;68.50
62680;BME280;68213;40.528;44.712;2023-06-14T05:05:53;80393.19;;;12.36;67.43
62680;BME280;68213;40.528;44.712;2023-06-14T05:06:54;80398.78;;;12.29;66.73
62680;BME280;68213;40.528;44.712;2023-06-14T05:07:55;80406.19;;;12.32;67.87
62680;BME280;68213;40.528;44.712;2023-06-14T05:08:56;80403.28;;;12.26;69.65
62680;BME280;68213;40.528;44.712;2023-06-14T05:09:57;80405.53;;;12.18;69.73
62680;BME280;68213;40.528;44.712;2023-06-14T05:10:57;80395.81;;;12.06;70.75
62680;BME280;68213;40.528;44.712;2023-06-14T05:11:58;80407.94;;;11.98;69.94
62680;BME280;68213;40.528;44.712;2023-06-14T05:13:00;80405.31;;;11.98;69.92
62680;BME280;68213;40.528;44.712;2023-06-14T05:14:01;80397.56;;;11.88;68.85
62680;BME280;68213;40.528;44.712;2023-06-14T05:15:02;80408.53;;;11.82;69.20
62680;BME280;68213;40.528;44.712;2023-06-14T05:16:04;80405.78;;;11.80;68.17
62680;BME280;68213;40.528;44.712;2023-06-14T05:17:05;80394.75;;;11.70;68.41
62680;BME280;68213;40.528;44.712;2023-06-14T05:18:08;80395.16;;;11.78;65.72
62680;BME280;68213;40.528;44.712;2023-06-14T05:19:10;80393.38;;;11.83;68.14
62680;BME280;68213;40.528;44.712;2023-06-14T05:20:11;80388.31;;;11.87;69.48
62680;BME280;68213;40.528;44.712;2023-06-14T05:21:11;80385.69;;;11.87;69.57
62680;BME280;68213;40.528;44.712;2023-06-14T05:22:12;80388.31;;;11.87;69.61
62680;BME280;68213;40.528;44.712;2023-06-14T05:23:12;80380.81;;;11.81;70.20
62680;BME280;68213;40.528;44.712;2023-06-14T05:24:15;80385.19;;;11.90;70.38
62680;BME280;68213;40.528;44.712;2023-06-14T05:25:17;80374.56;;;11.88;70.69
62680;BME280;68213;40.528;44.712;2023-06-14T05:26:19;80369.88;;;11.87;70.74